sensor_id;sensor_type;location;lat;lon;timestamp;temperature;humidity
78704;SHT31;68034;51.966;5.676;2023-12-14T00:01:23;10.2;74.3
78704;SHT31;68034;51.966;5.676;2023-12-14T00:03:52;10.1;74.2
78704;SHT31;68034;51.966;5.676;2023-12-14T00:06:21;10.1;73.6
78704;SHT31;68034;51.966;5.676;2023-12-14T00:08:50;10.1;73.9
78704;SHT31;68034;51.966;5.676;2023-12-14T00:11:18;10.1;74.1
78704;SHT31;68034;51.966;5.676;2023-12-14T00:13:47;10.1;74.1
78704;SHT31;68034;51.966;5.676;2023-12-14T00:16:18;10.1;73.9
78704;SHT31;68034;51.966;5.676;2023-12-14T00:18:47;10.1;74.4
78704;SHT31;68034;51.966;5.676;2023-12-14T00:21:17;10.1;74.9
78704;SHT31;68034;51.966;5.676;2023-12-14T00:23:46;10.1;74.8
78704;SHT31;68034;51.966;5.676;2023-12-14T00:26:15;10.1;74.9
78704;SHT31;68034;51.966;5.676;2023-12-14T00:28:44;10.1;74.8
78704;SHT31;68034;51.966;5.676;2023-12-14T00:31:14;10.1;74.3
78704;SHT31;68034;51.966;5.676;2023-12-14T00:33:43;10.1;74.1
78704;SHT31;68034;51.966;5.676;2023-12-14T00:36:19;10.1;74.4
78704;SHT31;68034;51.966;5.676;2023-12-14T00:38:48;10.1;74.9
78704;SHT31;68034;51.966;5.676;2023-12-14T00:41:17;10.1;75.2
78704;SHT31;68034;51.966;5.676;2023-12-14T00:43:45;10.2;74.5
78704;SHT31;68034;51.966;5.676;2023-12-14T00:46:14;10.4;74.3
78704;SHT31;68034;51.966;5.676;2023-12-14T00:48:42;10.5;73.4
78704;SHT31;68034;51.966;5.676;2023-12-14T00:51:11;10.6;72.6
78704;SHT31;68034;51.966;5.676;2023-12-14T00:53:40;10.7;72.3
78704;SHT31;68034;51.966;5.676;2023-12-14T00:56:10;10.8;71.9
78704;SHT31;68034;51.966;5.676;2023-12-14T00:58:39;10.9;70.8
78704;SHT31;68034;51.966;5.676;2023-12-14T01:01:10;10.9;70.4
78704;SHT31;68034;51.966;5.676;2023-12-14T01:03:38;10.9;70.0
78704;SHT31;68034;51.966;5.676;2023-12-14T01:06:07;10.9;69.8
78704;SHT31;68034;51.966;5.676;2023-12-14T01:08:35;10.9;69.6
78704;SHT31;68034;51.966;5.676;2023-12-14T01:11:04;10.9;69.7
78704;SHT31;68034;51.966;5.676;2023-12-14T01:13:34;10.8;69.4
78704;SHT31;68034;51.966;5.676;2023-12-14T01:16:02;10.8;69.1
78704;SHT31;68034;51.966;5.676;2023-12-14T01:18:31;10.7;69.4
78704;SHT31;68034;51.966;5.676;2023-12-14T01:21:00;10.6;69.7
78704;SHT31;68034;51.966;5.676;2023-12-14T01:23:28;10.5;70.4
78704;SHT31;68034;51.966;5.676;2023-12-14T01:25:57;10.4;70.7
78704;SHT31;68034;51.966;5.676;2023-12-14T01:28:28;10.4;71.0
78704;SHT31;68034;51.966;5.676;2023-12-14T01:30:58;10.3;71.2
78704;SHT31;68034;51.966;5.676;2023-12-14T01:33:27;10.3;71.0
78704;SHT31;68034;51.966;5.676;2023-12-14T01:35:55;10.2;71.1
78704;SHT31;68034;51.966;5.676;2023-12-14T01:38:26;10.1;71.1
78704;SHT31;68034;51.966;5.676;2023-12-14T01:40:54;10.1;71.0
78704;SHT31;68034;51.966;5.676;2023-12-14T01:43:25;10.0;71.9
78704;SHT31;68034;51.966;5.676;2023-12-14T01:45:54;10.0;71.9
78704;SHT31;68034;51.966;5.676;2023-12-14T01:48:22;9.9;72.2
78704;SHT31;68034;51.966;5.676;2023-12-14T01:50:51;9.9;72.3
78704;SHT31;68034;51.966;5.676;2023-12-14T01:53:20;9.9;72.0
78704;SHT31;68034;51.966;5.676;2023-12-14T01:55:48;9.9;72.5
78704;SHT31;68034;51.966;5.676;2023-12-14T01:58:17;9.8;72.3
78704;SHT31;68034;51.966;5.676;2023-12-14T02:00:51;9.8;72.3
78704;SHT31;68034;51.966;5.676;2023-12-14T02:03:21;9.8;73.0
78704;SHT31;68034;51.966;5.676;2023-12-14T02:05:50;9.7;73.0
78704;SHT31;68034;51.966;5.676;2023-12-14T02:08:18;9.7;72.7
78704;SHT31;68034;51.966;5.676;2023-12-14T02:10:47;9.7;73.1
78704;SHT31;68034;51.966;5.676;2023-12-14T02:13:16;9.7;73.1
78704;SHT31;68034;51.966;5.676;2023-12-14T02:15:45;9.7;73.3
78704;SHT31;68034;51.966;5.676;2023-12-14T02:18:14;9.7;73.7
78704;SHT31;68034;51.966;5.676;2023-12-14T02:20:43;9.8;73.8
78704;SHT31;68034;51.966;5.676;2023-12-14T02:23:11;10.0;73.1
78704;SHT31;68034;51.966;5.676;2023-12-14T02:25:42;10.2;72.3
78704;SHT31;68034;51.966;5.676;2023-12-14T02:28:14;10.3;71.7
78704;SHT31;68034;51.966;5.676;2023-12-14T02:30:43;10.4;70.8
78704;SHT31;68034;51.966;5.676;2023-12-14T02:33:14;10.6;70.7
78704;SHT31;68034;51.966;5.676;2023-12-14T02:35:44;10.6;69.7
78704;SHT31;68034;51.966;5.676;2023-12-14T02:38:12;10.6;69.1
78704;SHT31;68034;51.966;5.676;2023-12-14T02:40:41;10.5;69.0
78704;SHT31;68034;51.966;5.676;2023-12-14T02:43:09;10.4;69.0
78704;SHT31;68034;51.966;5.676;2023-12-14T02:45:38;10.3;69.5
78704;SHT31;68034;51.966;5.676;2023-12-14T02:48:07;10.3;70.1
78704;SHT31;68034;51.966;5.676;2023-12-14T02:50:35;10.2;70.2
78704;SHT31;68034;51.966;5.676;2023-12-14T02:53:04;10.1;70.2
78704;SHT31;68034;51.966;5.676;2023-12-14T02:55:33;10.0;70.8
78704;SHT31;68034;51.966;5.676;2023-12-14T02:58:01;10.0;71.0
78704;SHT31;68034;51.966;5.676;2023-12-14T03:00:30;9.9;71.0
78704;SHT31;68034;51.966;5.676;2023-12-14T03:02:59;9.8;71.2
78704;SHT31;68034;51.966;5.676;2023-12-14T03:05:27;9.8;71.3
78704;SHT31;68034;51.966;5.676;2023-12-14T03:07:56;9.7;71.8
78704;SHT31;68034;51.966;5.676;2023-12-14T03:10:24;9.7;72.2
78704;SHT31;68034;51.966;5.676;2023-12-14T03:12:53;9.6;72.3
78704;SHT31;68034;51.966;5.676;2023-12-14T03:15:22;9.6;72.8
78704;SHT31;68034;51.966;5.676;2023-12-14T03:17:50;9.6;72.8
78704;SHT31;68034;51.966;5.676;2023-12-14T03:20:20;9.6;72.6
78704;SHT31;68034;51.966;5.676;2023-12-14T03:22:49;9.5;72.5
78704;SHT31;68034;51.966;5.676;2023-12-14T03:25:18;9.5;72.8
78704;SHT31;68034;51.966;5.676;2023-12-14T03:27:46;9.5;73.0
78704;SHT31;68034;51.966;5.676;2023-12-14T03:30:15;9.4;72.9
78704;SHT31;68034;51.966;5.676;2023-12-14T03:32:44;9.4;72.7
78704;SHT31;68034;51.966;5.676;2023-12-14T03:35:14;9.4;73.2
78704;SHT31;68034;51.966;5.676;2023-12-14T03:37:43;9.4;73.4
78704;SHT31;68034;51.966;5.676;2023-12-14T03:40:12;9.4;73.4
78704;SHT31;68034;51.966;5.676;2023-12-14T03:42:41;9.3;73.7
78704;SHT31;68034;51.966;5.676;2023-12-14T03:45:10;9.3;73.8
78704;SHT31;68034;51.966;5.676;2023-12-14T03:47:39;9.3;73.6
78704;SHT31;68034;51.966;5.676;2023-12-14T03:50:11;9.3;73.8
78704;SHT31;68034;51.966;5.676;2023-12-14T03:52:39;9.3;74.0
78704;SHT31;68034;51.966;5.676;2023-12-14T03:55:08;9.3;73.4
78704;SHT31;68034;51.966;5.676;2023-12-14T03:57:37;9.3;73.8
78704;SHT31;68034;51.966;5.676;2023-12-14T04:00:07;9.3;73.5
78704;SHT31;68034;51.966;5.676;2023-12-14T04:02:37;9.3;73.4
78704;SHT31;68034;51.966;5.676;2023-12-14T04:05:07;9.3;73.7
78704;SHT31;68034;51.966;5.676;2023-12-14T04:07:37;9.3;73.5
78704;SHT31;68034;51.966;5.676;2023-12-14T04:10:08;9.3;73.3
78704;SHT31;68034;51.966;5.676;2023-12-14T04:12:37;9.2;73.7
78704;SHT31;68034;51.966;5.676;2023-12-14T04:15:09;9.2;73.3
78704;SHT31;68034;51.966;5.676;2023-12-14T04:17:38;9.2;73.7
78704;SHT31;68034;51.966;5.676;2023-12-14T04:20:07;9.2;73.3
78704;SHT31;68034;51.966;5.676;2023-12-14T04:22:36;9.2;73.3
78704;SHT31;68034;51.966;5.676;2023-12-14T04:25:06;9.2;73.1
78704;SHT31;68034;51.966;5.676;2023-12-14T04:27:35;9.2;73.4
78704;SHT31;68034;51.966;5.676;2023-12-14T04:30:04;9.2;73.6
78704;SHT31;68034;51.966;5.676;2023-12-14T04:32:36;9.2;73.5
78704;SHT31;68034;51.966;5.676;2023-12-14T04:35:06;9.2;73.7
78704;SHT31;68034;51.966;5.676;2023-12-14T04:37:37;9.2;73.8
78704;SHT31;68034;51.966;5.676;2023-12-14T04:40:06;9.2;73.7
78704;SHT31;68034;51.966;5.676;2023-12-14T04:42:36;9.2;73.6
78704;SHT31;68034;51.966;5.676;2023-12-14T04:45:05;9.2;73.3
78704;SHT31;68034;51.966;5.676;2023-12-14T04:47:36;9.2;73.4
78704;SHT31;68034;51.966;5.676;2023-12-14T04:50:05;9.1;73.6
78704;SHT31;68034;51.966;5.676;2023-12-14T04:52:34;9.1;73.3
78704;SHT31;68034;51.966;5.676;2023-12-14T04:55:02;9.1;73.4
78704;SHT31;68034;51.966;5.676;2023-12-14T04:57:31;9.1;73.3
78704;SHT31;68034;51.966;5.676;2023-12-14T05:00:00;9.1;73.4
78704;SHT31;68034;51.966;5.676;2023-12-14T05:02:31;9.1;73.7
78704;SHT31;68034;51.966;5.676;2023-12-14T05:05:00;9.1;73.7
78704;SHT31;68034;51.966;5.676;2023-12-14T05:07:28;9.1;73.8
78704;SHT31;68034;51.966;5.676;2023-12-14T05:09:57;9.1;73.8
78704;SHT31;68034;51.966;5.676;2023-12-14T05:12:26;9.1;74.0
78704;SHT31;68034;51.966;5.676;2023-12-14T05:14:56;9.1;73.7
78704;SHT31;68034;51.966;5.676;2023-12-14T05:17:24;9.1;74.0
78704;SHT31;68034;51.966;5.676;2023-12-14T05:19:53;9.1;73.6
78704;SHT31;68034;51.966;5.676;2023-12-14T05:22:22;9.1;73.8
78704;SHT31;68034;51.966;5.676;2023-12-14T05:24:53;9.1;73.9
78704;SHT31;68034;51.966;5.676;2023-12-14T05:27:21;9.1;73.9
78704;SHT31;68034;51.966;5.676;2023-12-14T05:29:51;9.1;73.8
78704;SHT31;68034;51.966;5.676;2023-12-14T05:32:20;9.1;73.4
78704;SHT31;68034;51.966;5.676;2023-12-14T05:34:48;9.1;73.8
78704;SHT31;68034;51.966;5.676;2023-12-14T05:37:19;9.1;73.5
78704;SHT31;68034;51.966;5.676;2023-12-14T05:39:47;9.1;73.9
78704;SHT31;68034;51.966;5.676;2023-12-14T05:42:17;9.1;74.0
78704;SHT31;68034;51.966;5.676;2023-12-14T05:44:46;9.1;74.2
78704;SHT31;68034;51.966;5.676;2023-12-14T05:47:15;9.1;73.9
78704;SHT31;68034;51.966;5.676;2023-12-14T05:49:44;9.1;73.7
78704;SHT31;68034;51.966;5.676;2023-12-14T05:52:12;9.1;73.6
78704;SHT31;68034;51.966;5.676;2023-12-14T05:54:41;9.0;73.7
78704;SHT31;68034;51.966;5.676;2023-12-14T05:57:10;9.0;73.5
78704;SHT31;68034;51.966;5.676;2023-12-14T05:59:39;9.0;73.6
78704;SHT31;68034;51.966;5.676;2023-12-14T06:02:08;9.0;73.5
78704;SHT31;68034;51.966;5.676;2023-12-14T06:04:37;9.0;73.8
78704;SHT31;68034;51.966;5.676;2023-12-14T06:07:07;9.0;73.5
78704;SHT31;68034;51.966;5.676;2023-12-14T06:09:36;9.0;73.8
78704;SHT31;68034;51.966;5.676;2023-12-14T06:12:05;9.0;73.5
78704;SHT31;68034;51.966;5.676;2023-12-14T06:14:34;9.0;73.0
78704;SHT31;68034;51.966;5.676;2023-12-14T06:17:03;9.0;73.4
78704;SHT31;68034;51.966;5.676;2023-12-14T06:19:34;8.9;73.2
78704;SHT31;68034;51.966;5.676;2023-12-14T06:22:03;8.9;73.9
78704;SHT31;68034;51.966;5.676;2023-12-14T06:24:32;8.9;74.1
78704;SHT31;68034;51.966;5.676;2023-12-14T06:27:01;8.9;73.6
78704;SHT31;68034;51.966;5.676;2023-12-14T06:29:30;8.9;74.2
78704;SHT31;68034;51.966;5.676;2023-12-14T06:31:59;8.9;74.5
78704;SHT31;68034;51.966;5.676;2023-12-14T06:34:27;8.9;74.2
78704;SHT31;68034;51.966;5.676;2023-12-14T06:36:56;8.9;74.3
78704;SHT31;68034;51.966;5.676;2023-12-14T06:39:26;8.8;74.5
78704;SHT31;68034;51.966;5.676;2023-12-14T06:41:55;8.8;74.3
78704;SHT31;68034;51.966;5.676;2023-12-14T06:44:23;8.8;74.2
78704;SHT31;68034;51.966;5.676;2023-12-14T06:46:54;8.8;74.5
78704;SHT31;68034;51.966;5.676;2023-12-14T06:49:25;8.8;74.0
78704;SHT31;68034;51.966;5.676;2023-12-14T06:51:53;8.8;73.7
78704;SHT31;68034;51.966;5.676;2023-12-14T06:54:22;8.9;73.9
78704;SHT31;68034;51.966;5.676;2023-12-14T06:56:53;8.9;73.3
78704;SHT31;68034;51.966;5.676;2023-12-14T06:59:22;8.9;73.8
78704;SHT31;68034;51.966;5.676;2023-12-14T07:01:50;8.9;74.0
78704;SHT31;68034;51.966;5.676;2023-12-14T07:04:19;8.9;73.9
78704;SHT31;68034;51.966;5.676;2023-12-14T07:06:52;8.9;73.2
78704;SHT31;68034;51.966;5.676;2023-12-14T07:09:21;8.9;73.6
78704;SHT31;68034;51.966;5.676;2023-12-14T07:11:49;8.9;73.2
78704;SHT31;68034;51.966;5.676;2023-12-14T07:14:18;8.9;72.7
78704;SHT31;68034;51.966;5.676;2023-12-14T07:16:47;8.9;72.5
78704;SHT31;68034;51.966;5.676;2023-12-14T07:19:15;8.9;72.2
78704;SHT31;68034;51.966;5.676;2023-12-14T07:21:44;8.9;72.1
78704;SHT31;68034;51.966;5.676;2023-12-14T07:26:11;8.9;71.5
78704;SHT31;68034;51.966;5.676;2023-12-14T07:28:39;8.9;71.8
78704;SHT31;68034;51.966;5.676;2023-12-14T07:31:08;8.9;71.6
78704;SHT31;68034;51.966;5.676;2023-12-14T07:33:37;8.9;71.6
78704;SHT31;68034;51.966;5.676;2023-12-14T07:36:06;8.8;71.6
78704;SHT31;68034;51.966;5.676;2023-12-14T07:38:35;8.8;71.7
78704;SHT31;68034;51.966;5.676;2023-12-14T07:41:04;8.8;71.7
78704;SHT31;68034;51.966;5.676;2023-12-14T07:43:33;8.8;71.9
78704;SHT31;68034;51.966;5.676;2023-12-14T07:46:01;8.8;71.5
78704;SHT31;68034;51.966;5.676;2023-12-14T07:48:30;8.8;71.6
78704;SHT31;68034;51.966;5.676;2023-12-14T07:50:59;8.8;71.9
78704;SHT31;68034;51.966;5.676;2023-12-14T07:53:27;8.8;71.5
78704;SHT31;68034;51.966;5.676;2023-12-14T07:55:56;8.8;71.4
78704;SHT31;68034;51.966;5.676;2023-12-14T07:58:24;8.8;71.4
78704;SHT31;68034;51.966;5.676;2023-12-14T08:00:54;8.8;70.8
78704;SHT31;68034;51.966;5.676;2023-12-14T08:03:22;8.7;70.7
78704;SHT31;68034;51.966;5.676;2023-12-14T08:05:51;8.7;71.7
78704;SHT31;68034;51.966;5.676;2023-12-14T08:08:20;8.7;71.3
78704;SHT31;68034;51.966;5.676;2023-12-14T08:10:49;8.7;71.8
78704;SHT31;68034;51.966;5.676;2023-12-14T08:13:17;8.7;71.7
78704;SHT31;68034;51.966;5.676;2023-12-14T08:15:47;8.7;71.3
78704;SHT31;68034;51.966;5.676;2023-12-14T08:18:15;8.7;71.0
78704;SHT31;68034;51.966;5.676;2023-12-14T08:20:44;8.7;71.4
78704;SHT31;68034;51.966;5.676;2023-12-14T08:23:12;8.7;71.3
78704;SHT31;68034;51.966;5.676;2023-12-14T08:25:41;8.7;70.9
78704;SHT31;68034;51.966;5.676;2023-12-14T08:28:10;8.6;71.0
78704;SHT31;68034;51.966;5.676;2023-12-14T08:30:39;8.6;71.1
78704;SHT31;68034;51.966;5.676;2023-12-14T08:33:07;8.6;71.6
78704;SHT31;68034;51.966;5.676;2023-12-14T08:35:36;8.6;71.3
78704;SHT31;68034;51.966;5.676;2023-12-14T08:38:05;8.6;71.3
78704;SHT31;68034;51.966;5.676;2023-12-14T08:40:33;8.6;71.1
78704;SHT31;68034;51.966;5.676;2023-12-14T08:43:02;8.6;71.3
78704;SHT31;68034;51.966;5.676;2023-12-14T08:45:31;8.6;71.4
78704;SHT31;68034;51.966;5.676;2023-12-14T08:47:59;8.6;70.8
78704;SHT31;68034;51.966;5.676;2023-12-14T08:50:28;8.6;71.8
78704;SHT31;68034;51.966;5.676;2023-12-14T08:52:57;8.6;71.7
78704;SHT31;68034;51.966;5.676;2023-12-14T08:55:26;8.6;71.9
78704;SHT31;68034;51.966;5.676;2023-12-14T08:57:55;8.6;71.5
78704;SHT31;68034;51.966;5.676;2023-12-14T09:00:23;8.7;71.3
78704;SHT31;68034;51.966;5.676;2023-12-14T09:02:52;8.7;71.0
78704;SHT31;68034;51.966;5.676;2023-12-14T09:05:21;8.7;70.7
78704;SHT31;68034;51.966;5.676;2023-12-14T09:07:52;8.7;70.7
78704;SHT31;68034;51.966;5.676;2023-12-14T09:10:22;8.7;70.8
78704;SHT31;68034;51.966;5.676;2023-12-14T09:12:52;8.7;70.4
78704;SHT31;68034;51.966;5.676;2023-12-14T09:15:20;8.7;70.8
78704;SHT31;68034;51.966;5.676;2023-12-14T09:17:51;8.7;70.5
78704;SHT31;68034;51.966;5.676;2023-12-14T09:20:20;8.7;70.4
78704;SHT31;68034;51.966;5.676;2023-12-14T09:22:50;8.7;70.6
78704;SHT31;68034;51.966;5.676;2023-12-14T09:25:18;8.7;70.7
78704;SHT31;68034;51.966;5.676;2023-12-14T09:27:47;8.7;70.4
78704;SHT31;68034;51.966;5.676;2023-12-14T09:30:16;8.7;70.5
78704;SHT31;68034;51.966;5.676;2023-12-14T09:32:45;8.7;70.4
78704;SHT31;68034;51.966;5.676;2023-12-14T09:35:15;8.7;69.9
78704;SHT31;68034;51.966;5.676;2023-12-14T09:37:44;8.6;70.5
78704;SHT31;68034;51.966;5.676;2023-12-14T09:40:13;8.6;70.9
78704;SHT31;68034;51.966;5.676;2023-12-14T09:42:43;8.6;71.4
78704;SHT31;68034;51.966;5.676;2023-12-14T09:45:11;8.6;71.1
78704;SHT31;68034;51.966;5.676;2023-12-14T09:47:41;8.6;70.6
78704;SHT31;68034;51.966;5.676;2023-12-14T09:50:12;8.6;71.0
78704;SHT31;68034;51.966;5.676;2023-12-14T09:52:43;8.6;71.0
78704;SHT31;68034;51.966;5.676;2023-12-14T09:55:15;8.6;71.1
78704;SHT31;68034;51.966;5.676;2023-12-14T09:57:44;8.6;71.1
78704;SHT31;68034;51.966;5.676;2023-12-14T10:00:34;8.6;71.1
78704;SHT31;68034;51.966;5.676;2023-12-14T10:03:23;8.6;72.2
78704;SHT31;68034;51.966;5.676;2023-12-14T10:05:53;8.6;71.3
78704;SHT31;68034;51.966;5.676;2023-12-14T10:08:23;8.6;71.6
78704;SHT31;68034;51.966;5.676;2023-12-14T10:10:53;8.6;71.6
78704;SHT31;68034;51.966;5.676;2023-12-14T10:13:39;8.6;70.7
78704;SHT31;68034;51.966;5.676;2023-12-14T10:16:08;8.6;71.4
78704;SHT31;68034;51.966;5.676;2023-12-14T10:18:37;8.7;71.5
78704;SHT31;68034;51.966;5.676;2023-12-14T10:21:07;8.7;71.0
78704;SHT31;68034;51.966;5.676;2023-12-14T10:23:38;8.7;70.8
78704;SHT31;68034;51.966;5.676;2023-12-14T10:26:09;8.7;70.8
78704;SHT31;68034;51.966;5.676;2023-12-14T10:28:39;8.7;70.4
78704;SHT31;68034;51.966;5.676;2023-12-14T10:31:09;8.7;70.9
78704;SHT31;68034;51.966;5.676;2023-12-14T10:33:37;8.7;70.0
78704;SHT31;68034;51.966;5.676;2023-12-14T10:36:07;8.7;70.6
78704;SHT31;68034;51.966;5.676;2023-12-14T10:38:37;8.7;70.6
78704;SHT31;68034;51.966;5.676;2023-12-14T10:41:07;8.7;70.5
78704;SHT31;68034;51.966;5.676;2023-12-14T10:43:41;8.7;70.9
78704;SHT31;68034;51.966;5.676;2023-12-14T10:46:10;8.7;71.3
78704;SHT31;68034;51.966;5.676;2023-12-14T10:48:40;8.7;71.7
78704;SHT31;68034;51.966;5.676;2023-12-14T10:51:11;8.7;71.4
78704;SHT31;68034;51.966;5.676;2023-12-14T10:53:41;8.7;71.1
78704;SHT31;68034;51.966;5.676;2023-12-14T10:56:14;8.7;71.3
78704;SHT31;68034;51.966;5.676;2023-12-14T10:58:47;8.7;70.3
78704;SHT31;68034;51.966;5.676;2023-12-14T11:01:19;8.7;70.4
78704;SHT31;68034;51.966;5.676;2023-12-14T11:03:54;8.7;71.1
78704;SHT31;68034;51.966;5.676;2023-12-14T11:06:30;8.7;71.5
78704;SHT31;68034;51.966;5.676;2023-12-14T11:09:01;8.7;71.7
78704;SHT31;68034;51.966;5.676;2023-12-14T11:11:41;8.8;71.4
78704;SHT31;68034;51.966;5.676;2023-12-14T11:14:13;8.8;70.8
78704;SHT31;68034;51.966;5.676;2023-12-14T11:16:48;8.8;70.7
78704;SHT31;68034;51.966;5.676;2023-12-14T11:19:28;8.8;69.6
78704;SHT31;68034;51.966;5.676;2023-12-14T11:22:26;8.8;70.2
78704;SHT31;68034;51.966;5.676;2023-12-14T11:24:56;8.8;71.1
78704;SHT31;68034;51.966;5.676;2023-12-14T11:27:29;8.8;71.0
78704;SHT31;68034;51.966;5.676;2023-12-14T11:29:58;8.8;70.9
78704;SHT31;68034;51.966;5.676;2023-12-14T11:32:28;8.8;71.0
78704;SHT31;68034;51.966;5.676;2023-12-14T11:34:57;8.8;71.5
78704;SHT31;68034;51.966;5.676;2023-12-14T11:37:26;8.8;70.9
78704;SHT31;68034;51.966;5.676;2023-12-14T11:39:55;8.8;71.3
78704;SHT31;68034;51.966;5.676;2023-12-14T11:42:23;8.8;71.1
78704;SHT31;68034;51.966;5.676;2023-12-14T11:44:57;8.9;69.7
78704;SHT31;68034;51.966;5.676;2023-12-14T11:47:26;8.9;70.1
78704;SHT31;68034;51.966;5.676;2023-12-14T11:49:55;8.9;70.9
78704;SHT31;68034;51.966;5.676;2023-12-14T11:52:24;8.9;70.5
78704;SHT31;68034;51.966;5.676;2023-12-14T11:54:52;8.9;70.4
78704;SHT31;68034;51.966;5.676;2023-12-14T11:57:21;9.0;70.2
78704;SHT31;68034;51.966;5.676;2023-12-14T11:59:52;9.0;70.3
78704;SHT31;68034;51.966;5.676;2023-12-14T12:02:25;9.1;70.3
78704;SHT31;68034;51.966;5.676;2023-12-14T12:04:53;9.1;70.1
78704;SHT31;68034;51.966;5.676;2023-12-14T12:07:22;9.2;69.0
78704;SHT31;68034;51.966;5.676;2023-12-14T12:09:51;9.2;69.1
78704;SHT31;68034;51.966;5.676;2023-12-14T12:12:20;9.3;69.7
78704;SHT31;68034;51.966;5.676;2023-12-14T12:14:49;9.3;69.5
78704;SHT31;68034;51.966;5.676;2023-12-14T12:17:21;9.4;69.7
78704;SHT31;68034;51.966;5.676;2023-12-14T12:19:49;9.5;68.8
78704;SHT31;68034;51.966;5.676;2023-12-14T12:22:20;9.7;68.9
78704;SHT31;68034;51.966;5.676;2023-12-14T12:24:50;9.9;67.3
78704;SHT31;68034;51.966;5.676;2023-12-14T12:27:21;10.1;66.9
78704;SHT31;68034;51.966;5.676;2023-12-14T12:29:53;10.3;66.1
78704;SHT31;68034;51.966;5.676;2023-12-14T12:32:25;10.5;66.1
78704;SHT31;68034;51.966;5.676;2023-12-14T12:34:54;10.6;64.9
78704;SHT31;68034;51.966;5.676;2023-12-14T12:37:24;10.7;64.2
78704;SHT31;68034;51.966;5.676;2023-12-14T12:39:53;10.7;63.4
78704;SHT31;68034;51.966;5.676;2023-12-14T12:42:23;10.7;63.4
78704;SHT31;68034;51.966;5.676;2023-12-14T12:44:52;10.6;63.6
78704;SHT31;68034;51.966;5.676;2023-12-14T12:47:21;10.6;64.2
78704;SHT31;68034;51.966;5.676;2023-12-14T12:49:50;10.5;63.5
78704;SHT31;68034;51.966;5.676;2023-12-14T12:52:18;10.4;63.3
78704;SHT31;68034;51.966;5.676;2023-12-14T12:54:47;10.3;63.6
78704;SHT31;68034;51.966;5.676;2023-12-14T12:57:16;10.3;64.2
78704;SHT31;68034;51.966;5.676;2023-12-14T12:59:45;10.2;64.3
78704;SHT31;68034;51.966;5.676;2023-12-14T13:02:14;10.1;64.3
78704;SHT31;68034;51.966;5.676;2023-12-14T13:04:44;10.1;65.1
78704;SHT31;68034;51.966;5.676;2023-12-14T13:07:13;10.0;64.6
78704;SHT31;68034;51.966;5.676;2023-12-14T13:09:42;9.9;65.5
78704;SHT31;68034;51.966;5.676;2023-12-14T13:12:11;9.9;65.9
78704;SHT31;68034;51.966;5.676;2023-12-14T13:14:40;9.8;66.3
78704;SHT31;68034;51.966;5.676;2023-12-14T13:17:09;9.8;66.3
78704;SHT31;68034;51.966;5.676;2023-12-14T13:19:37;9.8;66.9
78704;SHT31;68034;51.966;5.676;2023-12-14T13:22:06;9.7;66.1
78704;SHT31;68034;51.966;5.676;2023-12-14T13:24:35;9.7;65.9
78704;SHT31;68034;51.966;5.676;2023-12-14T13:27:03;9.7;66.6
78704;SHT31;68034;51.966;5.676;2023-12-14T13:29:32;9.7;66.0
78704;SHT31;68034;51.966;5.676;2023-12-14T13:32:02;9.6;66.9
78704;SHT31;68034;51.966;5.676;2023-12-14T13:34:30;9.6;66.7
78704;SHT31;68034;51.966;5.676;2023-12-14T13:37:01;9.6;66.8
78704;SHT31;68034;51.966;5.676;2023-12-14T13:39:32;9.6;66.0
78704;SHT31;68034;51.966;5.676;2023-12-14T13:42:04;9.5;66.2
78704;SHT31;68034;51.966;5.676;2023-12-14T13:44:33;9.5;66.7
78704;SHT31;68034;51.966;5.676;2023-12-14T13:47:03;9.5;66.5
78704;SHT31;68034;51.966;5.676;2023-12-14T13:49:32;9.5;66.7
78704;SHT31;68034;51.966;5.676;2023-12-14T13:52:01;9.5;66.6
78704;SHT31;68034;51.966;5.676;2023-12-14T13:54:30;9.4;66.8
78704;SHT31;68034;51.966;5.676;2023-12-14T13:56:59;9.4;66.7
78704;SHT31;68034;51.966;5.676;2023-12-14T13:59:28;9.4;66.4
78704;SHT31;68034;51.966;5.676;2023-12-14T14:02:01;9.4;66.8
78704;SHT31;68034;51.966;5.676;2023-12-14T14:04:30;9.4;67.4
78704;SHT31;68034;51.966;5.676;2023-12-14T14:06:58;9.4;67.6
78704;SHT31;68034;51.966;5.676;2023-12-14T14:09:27;9.4;67.8
78704;SHT31;68034;51.966;5.676;2023-12-14T14:11:56;9.4;68.1
78704;SHT31;68034;51.966;5.676;2023-12-14T14:14:25;9.4;68.0
78704;SHT31;68034;51.966;5.676;2023-12-14T14:16:54;9.4;68.0
78704;SHT31;68034;51.966;5.676;2023-12-14T14:19:22;9.4;68.0
78704;SHT31;68034;51.966;5.676;2023-12-14T14:21:51;9.4;68.0
78704;SHT31;68034;51.966;5.676;2023-12-14T14:24:20;9.4;67.7
78704;SHT31;68034;51.966;5.676;2023-12-14T14:26:48;9.4;68.8
78704;SHT31;68034;51.966;5.676;2023-12-14T14:29:20;9.6;68.2
78704;SHT31;68034;51.966;5.676;2023-12-14T14:31:49;9.7;68.0
78704;SHT31;68034;51.966;5.676;2023-12-14T14:34:17;9.9;67.7
78704;SHT31;68034;51.966;5.676;2023-12-14T14:36:46;10.1;67.5
78704;SHT31;68034;51.966;5.676;2023-12-14T14:39:15;10.2;67.2
78704;SHT31;68034;51.966;5.676;2023-12-14T14:41:49;10.3;65.9
78704;SHT31;68034;51.966;5.676;2023-12-14T14:44:18;10.4;65.4
78704;SHT31;68034;51.966;5.676;2023-12-14T14:46:49;10.4;65.1
78704;SHT31;68034;51.966;5.676;2023-12-14T14:49:18;10.4;64.9
78704;SHT31;68034;51.966;5.676;2023-12-14T14:51:47;10.4;64.6
78704;SHT31;68034;51.966;5.676;2023-12-14T14:54:17;10.4;64.6
78704;SHT31;68034;51.966;5.676;2023-12-14T14:56:46;10.4;63.9
78704;SHT31;68034;51.966;5.676;2023-12-14T14:59:15;10.4;64.2
78704;SHT31;68034;51.966;5.676;2023-12-14T15:01:43;10.3;64.1
78704;SHT31;68034;51.966;5.676;2023-12-14T15:04:13;10.2;64.2
78704;SHT31;68034;51.966;5.676;2023-12-14T15:06:42;10.1;64.6
78704;SHT31;68034;51.966;5.676;2023-12-14T15:09:11;10.1;64.8
78704;SHT31;68034;51.966;5.676;2023-12-14T15:11:40;10.0;65.3
78704;SHT31;68034;51.966;5.676;2023-12-14T15:14:09;9.9;65.4
78704;SHT31;68034;51.966;5.676;2023-12-14T15:16:38;9.9;65.4
78704;SHT31;68034;51.966;5.676;2023-12-14T15:19:06;9.8;66.1
78704;SHT31;68034;51.966;5.676;2023-12-14T15:21:39;9.7;66.2
78704;SHT31;68034;51.966;5.676;2023-12-14T15:24:10;9.7;66.2
78704;SHT31;68034;51.966;5.676;2023-12-14T15:26:42;9.7;66.7
78704;SHT31;68034;51.966;5.676;2023-12-14T15:29:11;9.6;66.4
78704;SHT31;68034;51.966;5.676;2023-12-14T15:31:40;9.6;66.9
78704;SHT31;68034;51.966;5.676;2023-12-14T15:34:08;9.5;67.2
78704;SHT31;68034;51.966;5.676;2023-12-14T15:36:39;9.5;67.4
78704;SHT31;68034;51.966;5.676;2023-12-14T15:39:09;9.4;68.2
78704;SHT31;68034;51.966;5.676;2023-12-14T15:41:38;9.4;68.5
78704;SHT31;68034;51.966;5.676;2023-12-14T15:44:07;9.4;68.1
78704;SHT31;68034;51.966;5.676;2023-12-14T15:46:36;9.3;68.0
78704;SHT31;68034;51.966;5.676;2023-12-14T15:49:05;9.3;68.1
78704;SHT31;68034;51.966;5.676;2023-12-14T15:51:34;9.3;68.2
78704;SHT31;68034;51.966;5.676;2023-12-14T15:54:03;9.3;68.5
78704;SHT31;68034;51.966;5.676;2023-12-14T15:56:31;9.3;68.9
78704;SHT31;68034;51.966;5.676;2023-12-14T15:59:00;9.2;68.9
78704;SHT31;68034;51.966;5.676;2023-12-14T16:01:30;9.2;69.3
78704;SHT31;68034;51.966;5.676;2023-12-14T16:03:59;9.2;69.5
78704;SHT31;68034;51.966;5.676;2023-12-14T16:06:27;9.2;69.4
78704;SHT31;68034;51.966;5.676;2023-12-14T16:08:56;9.2;69.4
78704;SHT31;68034;51.966;5.676;2023-12-14T16:11:25;9.2;69.5
78704;SHT31;68034;51.966;5.676;2023-12-14T16:13:54;9.2;69.5
78704;SHT31;68034;51.966;5.676;2023-12-14T16:16:23;9.2;70.2
78704;SHT31;68034;51.966;5.676;2023-12-14T16:18:52;9.2;69.9
78704;SHT31;68034;51.966;5.676;2023-12-14T16:21:21;9.2;70.2
78704;SHT31;68034;51.966;5.676;2023-12-14T16:23:50;9.2;70.5
78704;SHT31;68034;51.966;5.676;2023-12-14T16:26:18;9.2;70.2
78704;SHT31;68034;51.966;5.676;2023-12-14T16:28:47;9.2;70.6
78704;SHT31;68034;51.966;5.676;2023-12-14T16:31:16;9.2;70.7